createdAt,value
2018-07-07T00:02:15.701Z,14.70
2018-07-07T00:04:47.205Z,14.74
2018-07-07T00:07:18.597Z,14.44
2018-07-07T00:09:50.175Z,14.33
2018-07-07T00:12:21.528Z,14.52
2018-07-07T00:14:53.016Z,14.60
2018-07-07T00:17:24.556Z,14.52
2018-07-07T00:19:56.128Z,14.38
2018-07-07T00:22:27.446Z,14.37
2018-07-07T00:24:58.826Z,14.38
2018-07-07T00:27:30.179Z,14.32
2018-07-07T00:30:01.656Z,14.32
2018-07-07T00:32:33.245Z,14.32
2018-07-07T00:35:04.583Z,14.32
2018-07-07T00:37:36.101Z,14.28
2018-07-07T00:40:08.315Z,14.29
2018-07-07T00:42:40.210Z,14.21
2018-07-07T00:45:14.379Z,14.25
2018-07-07T00:47:49.754Z,14.33
2018-07-07T00:50:22.443Z,14.23
2018-07-07T00:52:53.862Z,14.18
2018-07-07T00:55:25.168Z,14.23
2018-07-07T00:57:56.334Z,13.94
2018-07-07T01:00:49.268Z,14.05
2018-07-07T01:03:21.325Z,13.84
2018-07-07T01:05:53.042Z,13.79
2018-07-07T01:08:24.534Z,13.70
2018-07-07T01:10:55.792Z,13.84
2018-07-07T01:13:27.227Z,13.77
2018-07-07T01:15:58.559Z,13.65
2018-07-07T01:18:29.845Z,13.57
2018-07-07T01:21:01.354Z,13.52
2018-07-07T01:23:32.672Z,13.42
2018-07-07T01:26:04.013Z,13.51
2018-07-07T01:28:35.317Z,13.29
2018-07-07T01:31:07.151Z,13.39
2018-07-07T01:33:38.663Z,13.47
2018-07-07T01:36:10.163Z,13.46
2018-07-07T01:38:41.409Z,13.44
2018-07-07T01:41:12.926Z,13.31
2018-07-07T01:43:44.492Z,13.04
2018-07-07T01:46:15.911Z,13.11
2018-07-07T01:48:47.402Z,13.01
2018-07-07T01:51:18.727Z,13.11
2018-07-07T01:53:50.142Z,13.22
2018-07-07T01:56:21.552Z,13.29
2018-07-07T01:58:52.915Z,13.12
2018-07-07T02:01:24.853Z,13.23
2018-07-07T02:03:56.459Z,13.12
2018-07-07T02:06:28.008Z,13.00
2018-07-07T02:08:59.614Z,13.14
2018-07-07T02:11:31.581Z,12.75
2018-07-07T02:14:03.090Z,12.81
2018-07-07T02:16:34.421Z,12.71
2018-07-07T02:19:05.921Z,12.66
2018-07-07T02:21:37.214Z,12.80
2018-07-07T02:24:08.710Z,12.51
2018-07-07T02:26:40.025Z,12.46
2018-07-07T02:29:11.416Z,12.49
2018-07-07T02:31:42.784Z,12.35
2018-07-07T02:34:14.039Z,12.45
2018-07-07T02:36:45.295Z,12.51
2018-07-07T02:39:16.998Z,12.58
2018-07-07T02:41:48.250Z,12.59
2018-07-07T02:44:19.446Z,12.46
2018-07-07T02:46:50.954Z,11.74
2018-07-07T02:49:22.009Z,11.99
2018-07-07T02:51:53.228Z,12.03
2018-07-07T02:54:25.360Z,12.06
2018-07-07T02:56:57.116Z,12.14
2018-07-07T02:59:28.276Z,11.94
2018-07-07T03:01:59.826Z,11.87
2018-07-07T03:04:31.145Z,11.92
2018-07-07T03:07:02.441Z,12.00
2018-07-07T03:09:34.352Z,12.07
2018-07-07T03:12:05.776Z,11.95
2018-07-07T03:14:37.116Z,11.75
2018-07-07T03:17:08.322Z,11.83
2018-07-07T03:19:39.649Z,11.78
2018-07-07T03:22:11.098Z,11.56
2018-07-07T03:24:42.685Z,11.64
2018-07-07T03:27:14.017Z,11.61
2018-07-07T03:29:45.300Z,11.63
2018-07-07T03:32:16.683Z,11.77
2018-07-07T03:34:47.915Z,11.70
2018-07-07T03:37:19.127Z,11.62
2018-07-07T03:39:50.275Z,11.80
2018-07-07T03:42:21.504Z,11.83
2018-07-07T03:44:53.006Z,11.87
2018-07-07T03:47:24.201Z,11.80
2018-07-07T03:49:55.607Z,11.83
2018-07-07T03:52:26.891Z,11.97
2018-07-07T03:54:58.050Z,11.81
2018-07-07T03:57:29.400Z,11.98
2018-07-07T04:00:00.748Z,11.90
2018-07-07T04:02:32.121Z,12.07
2018-07-07T04:05:03.470Z,12.18
2018-07-07T04:07:34.641Z,12.13
2018-07-07T04:10:05.787Z,12.07
2018-07-07T04:12:37.316Z,12.15
2018-07-07T04:15:09.141Z,12.26
2018-07-07T04:17:40.428Z,12.21
2018-07-07T04:20:11.972Z,12.06
2018-07-07T04:22:43.117Z,12.03
2018-07-07T04:25:14.396Z,12.07
2018-07-07T04:27:45.552Z,12.16
2018-07-07T04:30:16.780Z,12.26
2018-07-07T04:32:48.096Z,12.36
2018-07-07T04:35:19.530Z,12.33
2018-07-07T04:37:50.742Z,12.28
2018-07-07T04:40:22.040Z,12.55
2018-07-07T04:42:53.367Z,12.57
2018-07-07T04:45:24.665Z,12.58
2018-07-07T04:47:56.084Z,12.63
2018-07-07T04:50:27.294Z,12.87
2018-07-07T04:52:58.677Z,12.96
2018-07-07T04:55:29.958Z,13.10
2018-07-07T04:58:01.351Z,13.26
2018-07-07T05:00:32.531Z,13.37
2018-07-07T05:03:03.846Z,13.46
2018-07-07T05:05:35.068Z,13.55
2018-07-07T05:08:06.464Z,13.57
2018-07-07T05:10:37.822Z,13.89
2018-07-07T05:13:09.448Z,13.42
2018-07-07T05:15:40.700Z,13.83
2018-07-07T05:18:12.231Z,13.92
2018-07-07T05:20:43.383Z,13.99
2018-07-07T05:23:14.763Z,14.02
2018-07-07T05:25:46.364Z,14.24
2018-07-07T05:28:17.758Z,14.38
2018-07-07T05:30:49.056Z,14.40
2018-07-07T05:33:20.315Z,14.34
2018-07-07T05:35:51.597Z,14.49
2018-07-07T05:38:22.825Z,14.82
2018-07-07T05:40:54.217Z,15.01
2018-07-07T05:43:25.383Z,15.41
2018-07-07T05:45:56.915Z,15.80
2018-07-07T05:48:28.368Z,15.65
2018-07-07T05:50:59.594Z,15.86
2018-07-07T05:53:30.927Z,16.40
2018-07-07T05:56:02.297Z,16.57
2018-07-07T05:58:33.491Z,16.70
2018-07-07T06:01:04.974Z,16.85
2018-07-07T06:03:36.425Z,16.86
2018-07-07T06:06:07.558Z,16.83
2018-07-07T06:08:38.784Z,16.93
2018-07-07T06:11:10.135Z,16.60
2018-07-07T06:13:42.766Z,16.99
2018-07-07T06:16:15.541Z,17.02
2018-07-07T06:18:46.714Z,17.12
2018-07-07T06:21:18.051Z,17.26
2018-07-07T06:23:49.190Z,17.11
2018-07-07T06:26:20.590Z,16.81
2018-07-07T06:28:52.212Z,16.94
2018-07-07T06:31:23.448Z,17.15
2018-07-07T06:33:54.700Z,17.29
2018-07-07T06:36:27.793Z,17.24
2018-07-07T06:38:59.100Z,17.45
2018-07-07T06:41:30.472Z,17.29
2018-07-07T06:44:01.691Z,17.42
2018-07-07T06:46:32.970Z,17.63
2018-07-07T06:49:04.128Z,17.72
2018-07-07T06:51:35.400Z,17.91
2018-07-07T06:54:06.886Z,17.64
2018-07-07T06:56:38.352Z,18.09
2018-07-07T06:59:09.623Z,18.23
2018-07-07T07:01:40.761Z,18.49
2018-07-07T07:04:12.099Z,18.36
2018-07-07T07:06:43.338Z,18.13
2018-07-07T07:09:14.821Z,18.05
2018-07-07T07:11:45.884Z,18.22
2018-07-07T07:14:17.349Z,18.26
2018-07-07T07:16:48.537Z,18.10
2018-07-07T07:19:19.740Z,18.45
2018-07-07T07:21:51.107Z,18.66
2018-07-07T07:24:22.474Z,18.86
2018-07-07T07:26:53.835Z,19.17
2018-07-07T07:29:25.072Z,19.31
2018-07-07T07:31:56.285Z,19.43
2018-07-07T07:34:27.732Z,19.43
2018-07-07T07:36:59.036Z,19.47
2018-07-07T07:39:30.328Z,19.15
2018-07-07T07:42:01.643Z,19.10
2018-07-07T07:44:32.875Z,19.15
2018-07-07T07:47:04.035Z,19.10
2018-07-07T07:49:35.339Z,18.98
2018-07-07T07:52:06.993Z,19.00
2018-07-07T07:54:38.688Z,18.70
2018-07-07T07:57:10.117Z,19.10
2018-07-07T07:59:41.749Z,18.72
2018-07-07T08:02:13.241Z,18.61
2018-07-07T08:04:44.532Z,18.42
2018-07-07T08:07:16.865Z,18.91
2018-07-07T08:09:48.968Z,19.38
2018-07-07T08:12:20.255Z,19.67
2018-07-07T08:14:51.771Z,19.78
2018-07-07T08:17:23.188Z,19.80
2018-07-07T08:19:54.535Z,19.82
2018-07-07T08:22:25.985Z,19.86
2018-07-07T08:24:57.311Z,19.57
2018-07-07T08:27:28.655Z,19.66
2018-07-07T08:30:00.043Z,19.84
2018-07-07T08:32:31.258Z,19.53
2018-07-07T08:35:02.624Z,19.76
2018-07-07T08:37:33.935Z,20.41
2018-07-07T08:40:05.217Z,20.76
2018-07-07T08:42:38.834Z,20.62
2018-07-07T08:45:10.421Z,20.44
2018-07-07T08:47:41.752Z,20.92
2018-07-07T08:50:13.002Z,21.09
2018-07-07T08:52:44.378Z,20.91
2018-07-07T08:55:15.575Z,21.09
2018-07-07T08:57:46.941Z,21.55
2018-07-07T09:00:19.280Z,21.79
2018-07-07T09:02:50.589Z,22.05
2018-07-07T09:05:23.655Z,21.22
2018-07-07T09:07:55.357Z,21.30
2018-07-07T09:10:26.666Z,21.48
2018-07-07T09:12:57.993Z,21.72
2018-07-07T09:15:29.562Z,21.86
2018-07-07T09:18:01.038Z,21.59
2018-07-07T09:20:32.493Z,21.90
2018-07-07T09:23:03.941Z,22.02
2018-07-07T09:25:35.308Z,22.00
2018-07-07T09:28:06.748Z,22.18
2018-07-07T09:30:38.530Z,22.18
2018-07-07T09:33:10.064Z,21.90
2018-07-07T09:35:41.359Z,22.01
2018-07-07T09:38:12.815Z,21.45
2018-07-07T09:40:44.117Z,21.65
2018-07-07T09:43:15.497Z,21.61
2018-07-07T09:45:46.754Z,21.89
2018-07-07T09:48:18.112Z,22.11
2018-07-07T09:50:49.524Z,22.42
2018-07-07T09:53:21.535Z,22.76
2018-07-07T09:55:55.230Z,22.90
2018-07-07T09:58:27.017Z,22.56
2018-07-07T10:00:58.417Z,22.89
2018-07-07T10:03:29.718Z,22.51
2018-07-07T10:06:01.596Z,21.97
2018-07-07T10:08:39.579Z,22.46
2018-07-07T10:11:10.919Z,22.58
2018-07-07T10:13:42.194Z,23.07
2018-07-07T10:16:13.676Z,22.56
2018-07-07T10:18:45.104Z,22.91
2018-07-07T10:21:19.723Z,23.28
2018-07-07T10:23:53.424Z,23.30
2018-07-07T10:26:31.967Z,23.26
2018-07-07T10:29:09.506Z,23.18
2018-07-07T10:31:41.037Z,23.29
2018-07-07T10:34:12.324Z,23.33
2018-07-07T10:36:43.645Z,23.11
2018-07-07T10:39:14.924Z,23.19
2018-07-07T10:41:46.292Z,23.24
2018-07-07T10:44:18.021Z,23.44
2018-07-07T10:46:50.347Z,23.55
2018-07-07T10:49:21.531Z,23.75
2018-07-07T10:51:52.920Z,23.56
2018-07-07T10:54:24.291Z,22.95
2018-07-07T10:56:55.608Z,23.12
2018-07-07T10:59:27.040Z,23.22
2018-07-07T11:01:58.313Z,23.46
2018-07-07T11:04:29.755Z,23.28
2018-07-07T11:07:01.036Z,23.47
2018-07-07T11:09:32.640Z,23.72
2018-07-07T11:12:04.107Z,23.34
2018-07-07T11:14:35.662Z,23.68
2018-07-07T11:17:07.409Z,23.97
2018-07-07T11:19:38.716Z,23.42
2018-07-07T11:22:10.000Z,23.32
2018-07-07T11:24:41.423Z,23.70
2018-07-07T11:27:12.803Z,23.84
2018-07-07T11:29:44.158Z,22.89
2018-07-07T11:32:15.504Z,23.48
2018-07-07T11:34:46.675Z,23.60
2018-07-07T11:37:18.928Z,23.46
2018-07-07T11:39:50.482Z,23.73
2018-07-07T11:42:22.218Z,23.75
2018-07-07T11:44:53.837Z,23.84
2018-07-07T11:47:25.421Z,23.92
2018-07-07T11:49:56.856Z,23.46
2018-07-07T11:52:28.228Z,23.11
2018-07-07T11:54:59.710Z,23.51
2018-07-07T11:57:31.369Z,23.82
2018-07-07T12:00:02.855Z,24.22
2018-07-07T12:02:34.255Z,24.13
2018-07-07T12:05:05.720Z,23.98
2018-07-07T12:07:37.098Z,23.94
2018-07-07T12:10:09.681Z,24.03
2018-07-07T12:12:41.590Z,24.36
2018-07-07T12:15:13.039Z,24.11
2018-07-07T12:17:44.359Z,23.91
2018-07-07T12:20:15.756Z,24.09
2018-07-07T12:22:46.871Z,23.80
2018-07-07T12:25:18.229Z,24.16
2018-07-07T12:27:49.396Z,24.25
2018-07-07T12:30:21.994Z,23.74
2018-07-07T12:32:53.557Z,24.23
2018-07-07T12:35:24.793Z,24.48
2018-07-07T12:37:56.114Z,24.50
2018-07-07T12:40:27.640Z,24.46
2018-07-07T12:42:59.542Z,24.54
2018-07-07T12:45:30.950Z,24.60
2018-07-07T12:48:02.287Z,24.75
2018-07-07T12:50:33.754Z,24.39
2018-07-07T12:53:09.654Z,24.64
2018-07-07T12:55:41.870Z,24.82
2018-07-07T12:58:13.437Z,25.09
2018-07-07T13:00:44.885Z,25.10
2018-07-07T13:03:16.360Z,25.00
2018-07-07T13:05:56.145Z,24.84
2018-07-07T13:08:28.769Z,24.58
2018-07-07T13:11:01.502Z,24.66
2018-07-07T13:13:33.176Z,24.73
2018-07-07T13:16:04.895Z,25.00
2018-07-07T13:18:36.144Z,24.99
2018-07-07T13:21:07.685Z,24.82
2018-07-07T13:23:38.966Z,24.89
2018-07-07T13:26:10.614Z,24.84
2018-07-07T13:28:41.910Z,25.12
2018-07-07T13:31:13.708Z,25.02
2018-07-07T13:33:45.527Z,25.25
2018-07-07T13:36:16.926Z,25.18
2018-07-07T13:38:48.615Z,25.37
2018-07-07T13:41:19.953Z,25.62
2018-07-07T13:43:51.410Z,25.56
2018-07-07T13:46:22.876Z,25.37
2018-07-07T13:48:54.700Z,25.21
2018-07-07T13:51:32.523Z,25.45
2018-07-07T13:54:04.198Z,25.56
2018-07-07T13:56:36.139Z,25.54
2018-07-07T13:59:07.491Z,25.67
2018-07-07T14:01:38.855Z,25.63
2018-07-07T14:04:13.126Z,25.60
2018-07-07T14:06:46.884Z,25.68
2018-07-07T14:09:19.098Z,25.47
2018-07-07T14:11:50.697Z,25.45
2018-07-07T14:14:23.261Z,25.50
2018-07-07T14:16:55.045Z,25.62
2018-07-07T14:19:26.506Z,25.55
2018-07-07T14:21:59.492Z,25.41
2018-07-07T14:24:31.215Z,25.53
2018-07-07T14:27:02.656Z,25.41
2018-07-07T14:29:34.430Z,25.22
2018-07-07T14:32:06.094Z,25.31
2018-07-07T14:34:37.679Z,25.49
2018-07-07T14:37:09.577Z,25.32
2018-07-07T14:39:52.869Z,25.40
2018-07-07T14:42:58.447Z,25.31
2018-07-07T14:45:31.840Z,25.08
2018-07-07T14:48:04.488Z,25.14
2018-07-07T14:50:35.906Z,25.14
2018-07-07T14:53:07.332Z,25.06
2018-07-07T14:55:38.912Z,25.24
2018-07-07T14:58:11.128Z,25.25
2018-07-07T15:00:42.499Z,25.26
2018-07-07T15:03:14.330Z,25.08
2018-07-07T15:05:46.829Z,25.30
2018-07-07T15:08:19.620Z,25.36
2018-07-07T15:10:51.476Z,25.54
2018-07-07T15:13:24.013Z,25.44
2018-07-07T15:15:55.360Z,25.58
2018-07-07T15:18:27.065Z,25.46
2018-07-07T15:20:58.708Z,25.13
2018-07-07T15:23:30.888Z,25.06
2018-07-07T15:26:02.982Z,25.04
2018-07-07T15:28:34.701Z,24.97
2018-07-07T15:31:06.020Z,25.07
2018-07-07T15:33:37.584Z,25.06
2018-07-07T15:36:09.172Z,24.87
2018-07-07T15:38:40.586Z,24.88
2018-07-07T15:41:12.078Z,25.01
2018-07-07T15:43:43.540Z,25.14
2018-07-07T15:46:14.949Z,25.13
2018-07-07T15:48:46.513Z,25.10
2018-07-07T15:51:18.092Z,25.06
2018-07-07T15:53:49.544Z,25.16
2018-07-07T15:56:23.217Z,25.17
2018-07-07T15:58:54.713Z,25.18
2018-07-07T16:01:26.533Z,25.40
2018-07-07T16:03:58.941Z,25.14
2018-07-07T16:06:30.363Z,25.00
2018-07-07T16:09:05.109Z,24.82
2018-07-07T16:11:36.573Z,24.98
2018-07-07T16:14:08.093Z,24.92
2018-07-07T16:16:39.627Z,24.96
2018-07-07T16:19:11.128Z,24.74
2018-07-07T16:21:43.003Z,24.80
2018-07-07T16:24:14.341Z,24.93
2018-07-07T16:26:45.678Z,24.96
2018-07-07T16:29:17.008Z,24.95
2018-07-07T16:31:48.423Z,25.05
2018-07-07T16:34:20.007Z,25.04
2018-07-07T16:36:51.304Z,24.74
2018-07-07T16:39:22.695Z,24.95
2018-07-07T16:41:54.317Z,24.91
2018-07-07T16:44:26.538Z,24.76
2018-07-07T16:46:58.199Z,24.74
2018-07-07T16:49:29.794Z,24.56
2018-07-07T16:52:02.161Z,24.79
2018-07-07T16:54:39.646Z,24.68
2018-07-07T16:57:16.935Z,24.36
2018-07-07T16:59:48.249Z,24.12
2018-07-07T17:02:20.396Z,24.19
2018-07-07T17:04:51.958Z,24.25
2018-07-07T17:07:23.376Z,24.15
2018-07-07T17:09:54.907Z,24.04
2018-07-07T17:12:26.371Z,23.97
2018-07-07T17:14:58.007Z,23.94
2018-07-07T17:17:29.640Z,24.13
2018-07-07T17:20:01.176Z,23.87
2018-07-07T17:22:32.912Z,23.89
2018-07-07T17:25:04.659Z,23.92
2018-07-07T17:27:36.000Z,23.88
2018-07-07T17:30:07.644Z,23.89
2018-07-07T17:32:39.407Z,23.90
2018-07-07T17:35:10.863Z,23.63
2018-07-07T17:37:42.336Z,23.89
2018-07-07T17:40:14.127Z,23.70
2018-07-07T17:42:45.617Z,23.74
2018-07-07T17:45:18.090Z,23.79
2018-07-07T17:47:50.501Z,23.77
2018-07-07T17:50:24.443Z,23.63
2018-07-07T17:52:55.867Z,23.57
2018-07-07T17:55:28.623Z,23.73
2018-07-07T17:57:59.973Z,23.65
2018-07-07T18:00:33.123Z,23.53
2018-07-07T18:03:04.797Z,23.32
2018-07-07T18:05:36.219Z,23.32
2018-07-07T18:08:07.770Z,23.32
2018-07-07T18:10:39.843Z,23.36
2018-07-07T18:13:11.596Z,23.23
2018-07-07T18:15:47.242Z,23.30
2018-07-07T18:18:22.487Z,23.16
2018-07-07T18:20:59.152Z,23.15
2018-07-07T18:23:30.663Z,23.12
2018-07-07T18:26:02.282Z,23.04
2018-07-07T18:28:34.728Z,22.92
2018-07-07T18:31:06.833Z,22.88
2018-07-07T18:33:38.527Z,23.03
2018-07-07T18:36:11.775Z,23.01
2018-07-07T18:38:45.361Z,22.67
2018-07-07T18:41:18.337Z,22.63
2018-07-07T18:43:50.761Z,22.73
2018-07-07T18:46:22.521Z,22.56
2018-07-07T18:48:54.696Z,22.53
2018-07-07T18:51:27.565Z,22.49
2018-07-07T18:54:00.123Z,22.40
2018-07-07T18:56:32.912Z,22.29
2018-07-07T18:59:05.569Z,22.09
2018-07-07T19:01:38.554Z,22.00
2018-07-07T19:04:12.911Z,22.06
2018-07-07T19:06:49.620Z,21.91
2018-07-07T19:09:23.303Z,21.95
2018-07-07T19:11:55.027Z,21.95
2018-07-07T19:14:26.336Z,21.80
2018-07-07T19:16:58.613Z,21.80
2018-07-07T19:19:30.031Z,21.83
2018-07-07T19:22:06.368Z,21.88
2018-07-07T19:24:43.348Z,21.89
2018-07-07T19:27:14.751Z,21.69
2018-07-07T19:29:46.638Z,21.68
2018-07-07T19:34:27.519Z,21.53
2018-07-07T19:37:04.445Z,21.47
2018-07-07T19:39:36.032Z,21.30
2018-07-07T19:42:07.418Z,21.28
2018-07-07T19:44:40.678Z,20.94
2018-07-07T19:47:12.317Z,21.03
2018-07-07T19:49:43.713Z,21.30
2018-07-07T19:52:15.588Z,21.16
2018-07-07T19:54:47.041Z,21.10
2018-07-07T19:57:18.411Z,21.16
2018-07-07T19:59:49.674Z,21.03
2018-07-07T20:02:23.053Z,20.89
2018-07-07T20:04:54.558Z,20.89
2018-07-07T20:07:26.478Z,20.72
2018-07-07T20:09:57.850Z,20.73
2018-07-07T20:12:29.929Z,20.52
2018-07-07T20:15:01.436Z,20.47
2018-07-07T20:17:43.345Z,20.32
2018-07-07T20:20:34.600Z,20.26
2018-07-07T20:23:07.368Z,20.40
2018-07-07T20:25:38.822Z,20.38
2018-07-07T20:28:16.136Z,20.36
2018-07-07T20:30:47.643Z,20.35
2018-07-07T20:33:19.199Z,20.18
2018-07-07T20:35:50.599Z,20.02
2018-07-07T20:38:22.082Z,19.97
2018-07-07T20:40:53.550Z,19.81
2018-07-07T20:43:25.179Z,19.76
2018-07-07T20:45:56.633Z,19.67
2018-07-07T20:48:27.929Z,19.57
2018-07-07T20:51:02.156Z,19.43
2018-07-07T20:53:34.522Z,19.37
2018-07-07T20:56:05.917Z,19.30
2018-07-07T20:58:37.588Z,19.20
2018-07-07T21:01:09.043Z,19.25
2018-07-07T21:03:40.541Z,19.28
2018-07-07T21:06:11.898Z,19.27
2018-07-07T21:08:43.728Z,19.00
2018-07-07T21:11:15.303Z,18.97
2018-07-07T21:13:46.923Z,19.03
2018-07-07T21:16:18.386Z,18.93
2018-07-07T21:18:49.894Z,18.83
2018-07-07T21:21:21.235Z,18.89
2018-07-07T21:23:53.089Z,18.98
2018-07-07T21:26:24.599Z,19.05
2018-07-07T21:28:56.116Z,18.90
2018-07-07T21:31:27.738Z,18.91
2018-07-07T21:33:59.212Z,18.90
2018-07-07T21:36:30.559Z,18.88
2018-07-07T21:39:02.429Z,18.74
2018-07-07T21:41:33.950Z,18.60
2018-07-07T21:44:05.373Z,18.43
2018-07-07T21:46:36.652Z,18.52
2018-07-07T21:49:07.999Z,18.51
2018-07-07T21:51:39.304Z,17.95
2018-07-07T21:54:10.657Z,17.86
2018-07-07T21:56:41.952Z,18.15
2018-07-07T21:59:19.540Z,18.28
2018-07-07T22:01:57.916Z,18.17
2018-07-07T22:04:36.076Z,18.03
2018-07-07T22:07:14.835Z,17.96
2018-07-07T22:09:46.249Z,17.74
2018-07-07T22:12:17.687Z,17.89
2018-07-07T22:14:49.435Z,17.79
2018-07-07T22:17:20.759Z,17.58
2018-07-07T22:19:52.393Z,17.46
2018-07-07T22:22:23.824Z,17.56
2018-07-07T22:24:55.193Z,17.49
2018-07-07T22:27:26.745Z,17.38
2018-07-07T22:29:58.762Z,17.39
2018-07-07T22:32:34.239Z,17.33
2018-07-07T22:35:10.968Z,17.04
2018-07-07T22:37:42.576Z,17.09
2018-07-07T22:40:14.133Z,16.90
2018-07-07T22:42:45.451Z,16.81
2018-07-07T22:45:16.819Z,16.89
2018-07-07T22:47:48.248Z,16.76
2018-07-07T22:50:19.723Z,16.77
2018-07-07T22:52:51.116Z,16.56
2018-07-07T22:55:22.610Z,16.44
2018-07-07T22:57:53.947Z,16.50
2018-07-07T23:00:30.859Z,16.47
2018-07-07T23:03:02.902Z,16.41
2018-07-07T23:05:34.452Z,16.34
2018-07-07T23:08:05.895Z,16.23
2018-07-07T23:10:37.398Z,16.15
2018-07-07T23:13:09.335Z,16.21
2018-07-07T23:15:40.776Z,15.98
2018-07-07T23:18:12.020Z,16.00
2018-07-07T23:20:43.618Z,16.06
2018-07-07T23:23:15.069Z,16.09
2018-07-07T23:25:46.698Z,16.22
2018-07-07T23:28:18.204Z,16.07
2018-07-07T23:30:49.578Z,15.93
2018-07-07T23:33:21.228Z,15.58
2018-07-07T23:35:52.509Z,15.58
2018-07-07T23:38:24.879Z,15.84
2018-07-07T23:40:56.433Z,15.82
2018-07-07T23:43:27.818Z,15.57
2018-07-07T23:45:59.195Z,15.49
2018-07-07T23:48:30.612Z,15.54
2018-07-07T23:51:02.012Z,15.37
2018-07-07T23:53:33.647Z,15.20
2018-07-07T23:56:04.949Z,15.34
2018-07-07T23:58:36.330Z,15.40
